sensor_id;sensor_type;location;lat;lon;timestamp;pressure;altitude;pressure_sealevel;temperature;humidity
22550;BME280;11441;57.164;-2.120;2023-04-06T00:00:52;100467.25;;;9.31;100.00
22550;BME280;11441;57.164;-2.120;2023-04-06T00:03:18;100455.78;;;9.13;100.00
22550;BME280;11441;57.164;-2.120;2023-04-06T00:06:04;100455.25;;;9.08;100.00
22550;BME280;11441;57.164;-2.120;2023-04-06T00:08:32;100458.69;;;9.04;100.00
22550;BME280;11441;57.164;-2.120;2023-04-06T00:10:58;100455.78;;;9.13;100.00
22550;BME280;11441;57.164;-2.120;2023-04-06T00:13:25;100445.88;;;9.24;100.00
22550;BME280;11441;57.164;-2.120;2023-04-06T00:15:52;100449.63;;;9.32;100.00
22550;BME280;11441;57.164;-2.120;2023-04-06T00:18:39;100442.25;;;9.36;100.00
22550;BME280;11441;57.164;-2.120;2023-04-06T00:21:06;100443.53;;;9.55;100.00
22550;BME280;11441;57.164;-2.120;2023-04-06T00:23:33;100444.94;;;9.49;100.00
22550;BME280;11441;57.164;-2.120;2023-04-06T00:26:00;100443.97;;;9.57;100.00
22550;BME280;11441;57.164;-2.120;2023-04-06T00:28:27;100434.47;;;9.54;100.00
22550;BME280;11441;57.164;-2.120;2023-04-06T00:31:13;100429.59;;;9.63;100.00
22550;BME280;11441;57.164;-2.120;2023-04-06T00:33:40;100427.91;;;9.59;100.00
22550;BME280;11441;57.164;-2.120;2023-04-06T00:36:07;100427.63;;;9.64;100.00
22550;BME280;11441;57.164;-2.120;2023-04-06T00:38:34;100426.16;;;9.67;100.00
22550;BME280;11441;57.164;-2.120;2023-04-06T00:41:19;100424.09;;;9.63;100.00
22550;BME280;11441;57.164;-2.120;2023-04-06T00:43:47;100420.53;;;9.63;100.00
22550;BME280;11441;57.164;-2.120;2023-04-06T00:46:14;100414.94;;;9.59;100.00
22550;BME280;11441;57.164;-2.120;2023-04-06T00:48:41;100411.41;;;9.43;100.00
22550;BME280;11441;57.164;-2.120;2023-04-06T00:51:08;100405.22;;;9.46;100.00
22550;BME280;11441;57.164;-2.120;2023-04-06T00:53:34;100399.72;;;9.62;100.00
22550;BME280;11441;57.164;-2.120;2023-04-06T00:56:01;100401.84;;;9.53;100.00
22550;BME280;11441;57.164;-2.120;2023-04-06T00:58:35;100396.25;;;9.65;100.00
22550;BME280;11441;57.164;-2.120;2023-04-06T01:01:06;100391.97;;;9.68;100.00
22550;BME280;11441;57.164;-2.120;2023-04-06T01:03:34;100390.47;;;9.70;100.00
22550;BME280;11441;57.164;-2.120;2023-04-06T01:06:01;100387.19;;;9.65;100.00
22550;BME280;11441;57.164;-2.120;2023-04-06T01:08:34;100380.81;;;9.60;100.00
22550;BME280;11441;57.164;-2.120;2023-04-06T01:11:20;100381.09;;;9.55;100.00
22550;BME280;11441;57.164;-2.120;2023-04-06T01:13:49;100377.28;;;9.60;100.00
22550;BME280;11441;57.164;-2.120;2023-04-06T01:16:58;100377.34;;;9.63;100.00
22550;BME280;11441;57.164;-2.120;2023-04-06T01:19:29;100372.47;;;9.57;100.00
22550;BME280;11441;57.164;-2.120;2023-04-06T01:21:57;100375.94;;;9.54;100.00
22550;BME280;11441;57.164;-2.120;2023-04-06T01:24:30;100355.28;;;9.44;100.00
22550;BME280;11441;57.164;-2.120;2023-04-06T01:26:59;100345.59;;;9.50;100.00
22550;BME280;11441;57.164;-2.120;2023-04-06T01:29:35;100346.94;;;9.56;100.00
22550;BME280;11441;57.164;-2.120;2023-04-06T01:32:05;100355.47;;;9.51;100.00
22550;BME280;11441;57.164;-2.120;2023-04-06T01:34:38;100353.22;;;9.57;100.00
22550;BME280;11441;57.164;-2.120;2023-04-06T01:37:05;100354.56;;;9.47;100.00
22550;BME280;11441;57.164;-2.120;2023-04-06T01:39:32;100349.25;;;9.38;100.00
22550;BME280;11441;57.164;-2.120;2023-04-06T01:42:02;100345.78;;;9.41;100.00
22550;BME280;11441;57.164;-2.120;2023-04-06T01:44:32;100337.63;;;9.45;100.00
22550;BME280;11441;57.164;-2.120;2023-04-06T01:47:08;100344.22;;;9.40;100.00
22550;BME280;11441;57.164;-2.120;2023-04-06T01:49:35;100341.25;;;9.33;100.00
22550;BME280;11441;57.164;-2.120;2023-04-06T01:52:03;100339.84;;;9.39;100.00
22550;BME280;11441;57.164;-2.120;2023-04-06T01:54:30;100326.91;;;9.40;100.00
22550;BME280;11441;57.164;-2.120;2023-04-06T01:57:17;100325.25;;;9.35;100.00
22550;BME280;11441;57.164;-2.120;2023-04-06T01:59:54;100331.00;;;9.30;100.00
22550;BME280;11441;57.164;-2.120;2023-04-06T02:02:27;100328.53;;;9.09;100.00
22550;BME280;11441;57.164;-2.120;2023-04-06T02:04:59;100335.41;;;8.87;100.00
22550;BME280;11441;57.164;-2.120;2023-04-06T02:07:27;100327.09;;;8.99;100.00
22550;BME280;11441;57.164;-2.120;2023-04-06T02:09:55;100323.91;;;9.13;100.00
22550;BME280;11441;57.164;-2.120;2023-04-06T02:12:34;100319.03;;;8.91;100.00
22550;BME280;11441;57.164;-2.120;2023-04-06T02:15:01;100323.72;;;8.90;100.00
22550;BME280;11441;57.164;-2.120;2023-04-06T02:17:28;100323.34;;;8.92;100.00
22550;BME280;11441;57.164;-2.120;2023-04-06T02:19:55;100321.06;;;8.78;100.00
22550;BME280;11441;57.164;-2.120;2023-04-06T02:22:22;100315.84;;;8.89;100.00
22550;BME280;11441;57.164;-2.120;2023-04-06T02:24:50;100317.56;;;8.65;100.00
22550;BME280;11441;57.164;-2.120;2023-04-06T02:27:35;100307.78;;;8.52;100.00
22550;BME280;11441;57.164;-2.120;2023-04-06T02:30:03;100300.72;;;8.38;100.00
22550;BME280;11441;57.164;-2.120;2023-04-06T02:32:30;100298.94;;;8.58;100.00
22550;BME280;11441;57.164;-2.120;2023-04-06T02:34:57;100313.41;;;8.71;100.00
22550;BME280;11441;57.164;-2.120;2023-04-06T02:37:24;100316.00;;;8.80;100.00
22550;BME280;11441;57.164;-2.120;2023-04-06T02:39:51;100309.84;;;8.71;100.00
22550;BME280;11441;57.164;-2.120;2023-04-06T02:42:18;100310.56;;;8.67;100.00
22550;BME280;11441;57.164;-2.120;2023-04-06T02:44:48;100315.22;;;8.51;100.00
22550;BME280;11441;57.164;-2.120;2023-04-06T02:47:16;100307.44;;;8.53;100.00
22550;BME280;11441;57.164;-2.120;2023-04-06T02:49:47;100310.25;;;8.57;100.00
22550;BME280;11441;57.164;-2.120;2023-04-06T02:52:16;100316.56;;;8.57;100.00
22550;BME280;11441;57.164;-2.120;2023-04-06T02:54:44;100317.38;;;8.58;100.00
22550;BME280;11441;57.164;-2.120;2023-04-06T02:57:12;100312.56;;;8.55;100.00
22550;BME280;11441;57.164;-2.120;2023-04-06T02:59:42;100316.31;;;8.62;100.00
22550;BME280;11441;57.164;-2.120;2023-04-06T03:02:21;100312.81;;;8.78;100.00
22550;BME280;11441;57.164;-2.120;2023-04-06T03:04:48;100308.28;;;8.85;100.00
22550;BME280;11441;57.164;-2.120;2023-04-06T03:07:30;100315.84;;;8.89;100.00
22550;BME280;11441;57.164;-2.120;2023-04-06T03:10:16;100313.16;;;8.76;100.00
22550;BME280;11441;57.164;-2.120;2023-04-06T03:12:45;100310.34;;;8.89;100.00
22550;BME280;11441;57.164;-2.120;2023-04-06T03:15:19;100306.16;;;8.95;100.00
22550;BME280;11441;57.164;-2.120;2023-04-06T03:17:54;100297.31;;;8.85;100.00
22550;BME280;11441;57.164;-2.120;2023-04-06T03:20:35;100304.41;;;8.86;100.00
22550;BME280;11441;57.164;-2.120;2023-04-06T03:23:01;100292.69;;;8.90;100.00
22550;BME280;11441;57.164;-2.120;2023-04-06T03:25:33;100292.09;;;8.96;100.00
22550;BME280;11441;57.164;-2.120;2023-04-06T03:28:03;100297.75;;;8.87;100.00
22550;BME280;11441;57.164;-2.120;2023-04-06T03:30:34;100296.78;;;8.80;100.00
22550;BME280;11441;57.164;-2.120;2023-04-06T03:36:14;100282.44;;;8.86;100.00
22550;BME280;11441;57.164;-2.120;2023-04-06T03:38:42;100283.84;;;8.80;100.00
22550;BME280;11441;57.164;-2.120;2023-04-06T03:41:11;100277.19;;;8.81;100.00
22550;BME280;11441;57.164;-2.120;2023-04-06T03:43:42;100284.63;;;8.81;100.00
22550;BME280;11441;57.164;-2.120;2023-04-06T03:46:09;100270.47;;;8.79;100.00
22550;BME280;11441;57.164;-2.120;2023-04-06T03:48:35;100268.56;;;8.67;100.00
22550;BME280;11441;57.164;-2.120;2023-04-06T03:51:05;100269.56;;;8.75;100.00
22550;BME280;11441;57.164;-2.120;2023-04-06T03:53:31;100269.94;;;8.73;100.00
22550;BME280;11441;57.164;-2.120;2023-04-06T03:55:58;100262.66;;;8.65;100.00
22550;BME280;11441;57.164;-2.120;2023-04-06T03:58:28;100266.31;;;8.69;100.00
22550;BME280;11441;57.164;-2.120;2023-04-06T04:00:55;100267.69;;;8.63;100.00
22550;BME280;11441;57.164;-2.120;2023-04-06T04:03:22;100264.94;;;8.63;100.00
22550;BME280;11441;57.164;-2.120;2023-04-06T04:05:50;100259.72;;;8.58;100.00
22550;BME280;11441;57.164;-2.120;2023-04-06T04:08:18;100263.19;;;8.71;100.00
22550;BME280;11441;57.164;-2.120;2023-04-06T04:10:45;100267.00;;;8.66;100.00
22550;BME280;11441;57.164;-2.120;2023-04-06T04:13:12;100267.63;;;8.75;100.00
22550;BME280;11441;57.164;-2.120;2023-04-06T04:15:41;100259.66;;;8.70;100.00
22550;BME280;11441;57.164;-2.120;2023-04-06T04:18:25;100231.31;;;8.66;100.00
22550;BME280;11441;57.164;-2.120;2023-04-06T04:20:52;100251.59;;;8.77;100.00
22550;BME280;11441;57.164;-2.120;2023-04-06T04:23:21;100258.84;;;8.85;100.00
22550;BME280;11441;57.164;-2.120;2023-04-06T04:25:48;100246.91;;;8.78;100.00
22550;BME280;11441;57.164;-2.120;2023-04-06T04:28:15;100256.13;;;8.85;100.00
22550;BME280;11441;57.164;-2.120;2023-04-06T04:30:43;100256.56;;;8.87;100.00
22550;BME280;11441;57.164;-2.120;2023-04-06T04:33:11;100257.00;;;8.90;100.00
22550;BME280;11441;57.164;-2.120;2023-04-06T04:35:40;100261.78;;;8.93;100.00
22550;BME280;11441;57.164;-2.120;2023-04-06T04:38:09;100249.09;;;8.88;100.00
22550;BME280;11441;57.164;-2.120;2023-04-06T04:40:40;100259.56;;;8.98;100.00
22550;BME280;11441;57.164;-2.120;2023-04-06T04:43:09;100250.97;;;9.00;100.00
22550;BME280;11441;57.164;-2.120;2023-04-06T04:45:35;100257.97;;;8.97;100.00
22550;BME280;11441;57.164;-2.120;2023-04-06T04:48:13;100250.97;;;9.00;100.00
22550;BME280;11441;57.164;-2.120;2023-04-06T04:50:57;100259.91;;;8.97;100.00
22550;BME280;11441;57.164;-2.120;2023-04-06T04:53:27;100260.56;;;9.06;100.00
22550;BME280;11441;57.164;-2.120;2023-04-06T04:56:01;100259.84;;;9.09;100.00
22550;BME280;11441;57.164;-2.120;2023-04-06T04:58:46;100260.72;;;9.13;100.00
22550;BME280;11441;57.164;-2.120;2023-04-06T05:01:13;100252.22;;;9.18;100.00
22550;BME280;11441;57.164;-2.120;2023-04-06T05:03:42;100256.81;;;9.14;100.00
22550;BME280;11441;57.164;-2.120;2023-04-06T05:06:13;100248.38;;;9.23;100.00
22550;BME280;11441;57.164;-2.120;2023-04-06T05:08:42;100246.44;;;9.23;100.00
22550;BME280;11441;57.164;-2.120;2023-04-06T05:11:27;100243.41;;;9.29;100.00
22550;BME280;11441;57.164;-2.120;2023-04-06T05:13:59;100249.63;;;9.25;100.00
22550;BME280;11441;57.164;-2.120;2023-04-06T05:16:27;100251.66;;;9.29;100.00
22550;BME280;11441;57.164;-2.120;2023-04-06T05:18:54;100252.22;;;9.18;100.00
22550;BME280;11441;57.164;-2.120;2023-04-06T05:21:27;100254.06;;;9.30;100.00
22550;BME280;11441;57.164;-2.120;2023-04-06T05:24:04;100243.06;;;9.30;100.00
22550;BME280;11441;57.164;-2.120;2023-04-06T05:26:33;100245.72;;;9.11;100.00
22550;BME280;11441;57.164;-2.120;2023-04-06T05:29:06;100242.47;;;9.05;100.00
22550;BME280;11441;57.164;-2.120;2023-04-06T05:31:36;100246.63;;;9.15;100.00
22550;BME280;11441;57.164;-2.120;2023-04-06T05:34:03;100243.44;;;9.13;100.00
22550;BME280;11441;57.164;-2.120;2023-04-06T05:36:33;100234.94;;;9.18;100.00
22550;BME280;11441;57.164;-2.120;2023-04-06T05:39:05;100236.59;;;9.22;100.00
22550;BME280;11441;57.164;-2.120;2023-04-06T05:41:46;100242.88;;;9.23;100.00
22550;BME280;11441;57.164;-2.120;2023-04-06T05:44:14;100242.69;;;9.32;100.00
22550;BME280;11441;57.164;-2.120;2023-04-06T05:46:46;100238.19;;;9.23;100.00
22550;BME280;11441;57.164;-2.120;2023-04-06T05:49:15;100239.84;;;9.28;100.00
22550;BME280;11441;57.164;-2.120;2023-04-06T05:51:42;100242.28;;;9.14;100.00
22550;BME280;11441;57.164;-2.120;2023-04-06T05:54:09;100236.06;;;9.17;100.00
22550;BME280;11441;57.164;-2.120;2023-04-06T05:56:36;100242.28;;;9.14;100.00
22550;BME280;11441;57.164;-2.120;2023-04-06T05:59:23;100242.09;;;9.22;100.00
22550;BME280;11441;57.164;-2.120;2023-04-06T06:01:52;100236.75;;;9.30;100.00
22550;BME280;11441;57.164;-2.120;2023-04-06T06:04:19;100229.41;;;9.34;100.00
22550;BME280;11441;57.164;-2.120;2023-04-06T06:06:50;100233.72;;;9.35;100.00
22550;BME280;11441;57.164;-2.120;2023-04-06T06:09:20;100230.31;;;9.22;100.00
22550;BME280;11441;57.164;-2.120;2023-04-06T06:12:02;100234.94;;;9.18;100.00
22550;BME280;11441;57.164;-2.120;2023-04-06T06:14:29;100237.50;;;9.27;100.00
22550;BME280;11441;57.164;-2.120;2023-04-06T06:16:56;100231.63;;;9.12;100.00
22550;BME280;11441;57.164;-2.120;2023-04-06T06:19:23;100237.38;;;9.23;100.00
22550;BME280;11441;57.164;-2.120;2023-04-06T06:21:54;100238.47;;;9.18;100.00
22550;BME280;11441;57.164;-2.120;2023-04-06T06:24:20;100233.06;;;9.22;100.00
22550;BME280;11441;57.164;-2.120;2023-04-06T06:26:47;100237.50;;;9.27;100.00
22550;BME280;11441;57.164;-2.120;2023-04-06T06:29:17;100237.38;;;9.23;100.00
22550;BME280;11441;57.164;-2.120;2023-04-06T06:31:44;100237.75;;;9.21;100.00
22550;BME280;11441;57.164;-2.120;2023-04-06T06:34:11;100230.22;;;9.18;100.00
22550;BME280;11441;57.164;-2.120;2023-04-06T06:36:40;100234.13;;;9.17;100.00
22550;BME280;11441;57.164;-2.120;2023-04-06T06:39:10;100238.19;;;9.23;100.00
22550;BME280;11441;57.164;-2.120;2023-04-06T06:41:38;100237.28;;;9.19;100.00
22550;BME280;11441;57.164;-2.120;2023-04-06T06:44:05;100235.88;;;9.25;100.00
22550;BME280;11441;57.164;-2.120;2023-04-06T06:46:34;100230.31;;;9.22;100.00
22550;BME280;11441;57.164;-2.120;2023-04-06T06:49:00;100237.84;;;9.25;100.00
22550;BME280;11441;57.164;-2.120;2023-04-06T06:51:27;100239.69;;;9.21;100.00
22550;BME280;11441;57.164;-2.120;2023-04-06T06:53:54;100236.75;;;9.30;100.00
22550;BME280;11441;57.164;-2.120;2023-04-06T06:56:21;100238.44;;;9.34;100.00
22550;BME280;11441;57.164;-2.120;2023-04-06T06:58:50;100236.91;;;9.37;100.00
22550;BME280;11441;57.164;-2.120;2023-04-06T07:01:17;100238.78;;;9.33;100.00
22550;BME280;11441;57.164;-2.120;2023-04-06T07:03:44;100235.59;;;9.31;100.00
22550;BME280;11441;57.164;-2.120;2023-04-06T07:06:11;100236.84;;;9.33;100.00
22550;BME280;11441;57.164;-2.120;2023-04-06T07:08:39;100232.06;;;9.30;100.00
22550;BME280;11441;57.164;-2.120;2023-04-06T07:11:06;100237.03;;;9.24;100.00
22550;BME280;11441;57.164;-2.120;2023-04-06T07:13:33;100233.41;;;9.20;100.00
22550;BME280;11441;57.164;-2.120;2023-04-06T07:16:01;100241.19;;;9.34;100.00
22550;BME280;11441;57.164;-2.120;2023-04-06T07:18:28;100237.03;;;9.40;100.00
22550;BME280;11441;57.164;-2.120;2023-04-06T07:20:55;100240.28;;;9.46;100.00
22550;BME280;11441;57.164;-2.120;2023-04-06T07:23:22;100235.88;;;9.25;100.00
22550;BME280;11441;57.164;-2.120;2023-04-06T07:25:49;100238.00;;;9.32;100.00
22550;BME280;11441;57.164;-2.120;2023-04-06T07:28:17;100239.94;;;9.32;100.00
22550;BME280;11441;57.164;-2.120;2023-04-06T07:30:44;100249.03;;;9.16;100.00
22550;BME280;11441;57.164;-2.120;2023-04-06T07:33:11;100244.03;;;9.22;100.00
22550;BME280;11441;57.164;-2.120;2023-04-06T07:35:40;100237.94;;;9.13;100.00
22550;BME280;11441;57.164;-2.120;2023-04-06T07:38:09;100236.66;;;9.26;100.00
22550;BME280;11441;57.164;-2.120;2023-04-06T07:40:35;100237.88;;;9.44;100.00
22550;BME280;11441;57.164;-2.120;2023-04-06T07:43:02;100244.00;;;9.38;100.00
22550;BME280;11441;57.164;-2.120;2023-04-06T07:45:30;100232.06;;;9.14;100.00
22550;BME280;11441;57.164;-2.120;2023-04-06T07:47:57;100228.34;;;9.22;100.00
22550;BME280;11441;57.164;-2.120;2023-04-06T07:50:26;100224.50;;;9.43;100.00
22550;BME280;11441;57.164;-2.120;2023-04-06T07:52:53;100232.47;;;9.48;100.00
22550;BME280;11441;57.164;-2.120;2023-04-06T07:55:22;100233.66;;;9.31;100.00
22550;BME280;11441;57.164;-2.120;2023-04-06T07:57:48;100233.88;;;9.42;100.00
22550;BME280;11441;57.164;-2.120;2023-04-06T08:00:15;100229.75;;;9.32;100.00
22550;BME280;11441;57.164;-2.120;2023-04-06T08:02:42;100229.31;;;9.14;100.00
22550;BME280;11441;57.164;-2.120;2023-04-06T08:05:09;100234.81;;;9.14;100.00
22550;BME280;11441;57.164;-2.120;2023-04-06T08:07:36;100236.75;;;9.30;100.00
22550;BME280;11441;57.164;-2.120;2023-04-06T08:10:03;100231.19;;;9.26;100.00
22550;BME280;11441;57.164;-2.120;2023-04-06T08:12:32;100230.53;;;9.33;100.00
22550;BME280;11441;57.164;-2.120;2023-04-06T08:14:59;100226.97;;;9.13;100.00
22550;BME280;11441;57.164;-2.120;2023-04-06T08:17:45;100231.81;;;9.35;100.00
22550;BME280;11441;57.164;-2.120;2023-04-06T08:20:12;100235.69;;;9.34;100.00
22550;BME280;11441;57.164;-2.120;2023-04-06T08:22:58;100243.88;;;9.15;100.00
22550;BME280;11441;57.164;-2.120;2023-04-06T08:25:25;100245.94;;;9.18;100.00
22550;BME280;11441;57.164;-2.120;2023-04-06T08:27:52;100242.63;;;9.12;100.00
22550;BME280;11441;57.164;-2.120;2023-04-06T08:30:19;100240.88;;;9.04;100.00
22550;BME280;11441;57.164;-2.120;2023-04-06T08:32:46;100237.88;;;9.09;100.00
22550;BME280;11441;57.164;-2.120;2023-04-06T08:35:13;100242.34;;;9.17;100.00
22550;BME280;11441;57.164;-2.120;2023-04-06T08:37:40;100243.44;;;9.13;100.00
22550;BME280;11441;57.164;-2.120;2023-04-06T08:40:07;100245.81;;;9.14;100.00
22550;BME280;11441;57.164;-2.120;2023-04-06T08:42:39;100244.03;;;9.22;100.00
22550;BME280;11441;57.164;-2.120;2023-04-06T08:45:08;100254.63;;;9.04;100.00
22550;BME280;11441;57.164;-2.120;2023-04-06T08:47:36;100257.88;;;9.10;100.00
22550;BME280;11441;57.164;-2.120;2023-04-06T08:50:04;100244.50;;;9.08;100.00
22550;BME280;11441;57.164;-2.120;2023-04-06T08:52:32;100248.56;;;9.30;100.00
22550;BME280;11441;57.164;-2.120;2023-04-06T08:55:00;100260.19;;;9.23;100.00
22550;BME280;11441;57.164;-2.120;2023-04-06T08:57:28;100253.34;;;9.17;100.00
22550;BME280;11441;57.164;-2.120;2023-04-06T08:59:56;100256.72;;;8.95;100.00
22550;BME280;11441;57.164;-2.120;2023-04-06T09:02:45;100258.56;;;9.22;100.00
22550;BME280;11441;57.164;-2.120;2023-04-06T09:05:12;100254.78;;;9.11;100.00
22550;BME280;11441;57.164;-2.120;2023-04-06T09:07:40;100264.16;;;9.26;100.00
22550;BME280;11441;57.164;-2.120;2023-04-06T09:10:43;100260.72;;;8.97;100.00
22550;BME280;11441;57.164;-2.120;2023-04-06T09:13:10;100262.84;;;9.04;100.00
22550;BME280;11441;57.164;-2.120;2023-04-06T09:15:37;100275.69;;;8.84;100.00
22550;BME280;11441;57.164;-2.120;2023-04-06T09:18:04;100282.53;;;9.06;100.00
22550;BME280;11441;57.164;-2.120;2023-04-06T09:20:32;100273.38;;;8.86;100.00
22550;BME280;11441;57.164;-2.120;2023-04-06T09:22:58;100275.88;;;9.07;100.00
22550;BME280;11441;57.164;-2.120;2023-04-06T09:25:26;100278.00;;;8.82;100.00
22550;BME280;11441;57.164;-2.120;2023-04-06T09:28:04;100278.59;;;9.07;100.00
22550;BME280;11441;57.164;-2.120;2023-04-06T09:30:31;100279.16;;;9.13;100.00
22550;BME280;11441;57.164;-2.120;2023-04-06T09:32:58;100284.66;;;9.13;100.00
22550;BME280;11441;57.164;-2.120;2023-04-06T09:35:29;100283.50;;;8.98;100.00
22550;BME280;11441;57.164;-2.120;2023-04-06T09:38:15;100276.22;;;9.21;100.00
22550;BME280;11441;57.164;-2.120;2023-04-06T09:40:51;100281.97;;;8.84;100.00
22550;BME280;11441;57.164;-2.120;2023-04-06T09:43:26;100283.31;;;9.06;100.00
22550;BME280;11441;57.164;-2.120;2023-04-06T09:45:53;100293.50;;;9.22;100.00
22550;BME280;11441;57.164;-2.120;2023-04-06T09:48:21;100288.97;;;9.30;100.00
22550;BME280;11441;57.164;-2.120;2023-04-06T09:50:49;100290.50;;;9.11;100.00
22550;BME280;11441;57.164;-2.120;2023-04-06T09:53:19;100300.84;;;9.02;100.00
22550;BME280;11441;57.164;-2.120;2023-04-06T09:55:47;100291.22;;;9.08;100.00
22550;BME280;11441;57.164;-2.120;2023-04-06T09:58:19;100295.81;;;9.20;100.00
22550;BME280;11441;57.164;-2.120;2023-04-06T10:01:05;100299.41;;;9.40;100.00
22550;BME280;11441;57.164;-2.120;2023-04-06T10:06:10;100299.97;;;9.14;100.00
22550;BME280;11441;57.164;-2.120;2023-04-06T10:08:40;100304.75;;;9.17;100.00
22550;BME280;11441;57.164;-2.120;2023-04-06T10:11:08;100307.59;;;9.20;100.00
22550;BME280;11441;57.164;-2.120;2023-04-06T10:13:36;100309.63;;;9.23;100.00
22550;BME280;11441;57.164;-2.120;2023-04-06T10:16:03;100303.44;;;9.27;100.00
22550;BME280;11441;57.164;-2.120;2023-04-06T10:18:30;100312.91;;;9.13;100.00
22550;BME280;11441;57.164;-2.120;2023-04-06T10:21:04;100311.22;;;9.09;100.00
22550;BME280;11441;57.164;-2.120;2023-04-06T10:23:35;100312.91;;;9.13;100.00
22550;BME280;11441;57.164;-2.120;2023-04-06T10:26:20;100314.50;;;9.14;100.00
22550;BME280;11441;57.164;-2.120;2023-04-06T10:28:48;100313.34;;;9.15;100.00
22550;BME280;11441;57.164;-2.120;2023-04-06T10:31:24;100312.47;;;9.11;100.00
22550;BME280;11441;57.164;-2.120;2023-04-06T10:33:59;100317.53;;;9.09;100.00
22550;BME280;11441;57.164;-2.120;2023-04-06T10:36:28;100317.63;;;9.13;100.00
22550;BME280;11441;57.164;-2.120;2023-04-06T10:39:03;100325.50;;;9.30;100.00
22550;BME280;11441;57.164;-2.120;2023-04-06T10:44:01;100317.88;;;9.08;100.00
22550;BME280;11441;57.164;-2.120;2023-04-06T10:46:55;100331.34;;;9.13;100.00
22550;BME280;11441;57.164;-2.120;2023-04-06T10:49:22;100333.03;;;9.17;100.00
22550;BME280;11441;57.164;-2.120;2023-04-06T10:51:54;100345.63;;;9.18;100.00
22550;BME280;11441;57.164;-2.120;2023-04-06T10:54:22;100337.56;;;9.10;100.00
22550;BME280;11441;57.164;-2.120;2023-04-06T10:56:50;100334.38;;;9.23;100.00
22550;BME280;11441;57.164;-2.120;2023-04-06T10:59:20;100329.47;;;9.33;100.00
22550;BME280;11441;57.164;-2.120;2023-04-06T11:01:48;100330.19;;;9.14;100.00
22550;BME280;11441;57.164;-2.120;2023-04-06T11:04:20;100338.69;;;9.24;100.00
22550;BME280;11441;57.164;-2.120;2023-04-06T11:06:49;100329.75;;;9.28;100.00
22550;BME280;11441;57.164;-2.120;2023-04-06T11:09:26;100343.31;;;9.04;100.00
22550;BME280;11441;57.164;-2.120;2023-04-06T11:11:53;100342.00;;;9.30;100.00
22550;BME280;11441;57.164;-2.120;2023-04-06T11:14:21;100339.13;;;9.11;100.00
22550;BME280;11441;57.164;-2.120;2023-04-06T11:16:49;100347.84;;;9.13;100.00
22550;BME280;11441;57.164;-2.120;2023-04-06T11:19:18;100345.81;;;9.25;100.00
22550;BME280;11441;57.164;-2.120;2023-04-06T11:22:07;100358.28;;;9.07;100.00
22550;BME280;11441;57.164;-2.120;2023-04-06T11:24:34;100349.50;;;9.17;100.00
22550;BME280;11441;57.164;-2.120;2023-04-06T11:27:01;100358.19;;;9.19;100.00
22550;BME280;11441;57.164;-2.120;2023-04-06T11:29:29;100349.78;;;9.28;100.00
22550;BME280;11441;57.164;-2.120;2023-04-06T11:32:02;100363.16;;;9.46;100.00
22550;BME280;11441;57.164;-2.120;2023-04-06T11:34:30;100351.66;;;9.40;100.00
22550;BME280;11441;57.164;-2.120;2023-04-06T11:37:00;100353.00;;;9.30;100.00
22550;BME280;11441;57.164;-2.120;2023-04-06T11:39:28;100352.78;;;9.23;100.00
22550;BME280;11441;57.164;-2.120;2023-04-06T11:42:00;100371.84;;;9.32;100.00
22550;BME280;11441;57.164;-2.120;2023-04-06T11:44:40;100357.97;;;9.40;100.00
22550;BME280;11441;57.164;-2.120;2023-04-06T11:47:10;100362.72;;;9.28;100.00
22550;BME280;11441;57.164;-2.120;2023-04-06T11:49:39;100365.03;;;9.10;100.00
22550;BME280;11441;57.164;-2.120;2023-04-06T11:52:19;100365.66;;;9.35;100.00
22550;BME280;11441;57.164;-2.120;2023-04-06T11:54:48;100370.44;;;9.54;100.00
22550;BME280;11441;57.164;-2.120;2023-04-06T11:57:17;100377.91;;;9.21;100.00
22550;BME280;11441;57.164;-2.120;2023-04-06T11:59:45;100385.81;;;8.95;100.00
22550;BME280;11441;57.164;-2.120;2023-04-06T12:02:11;100381.03;;;8.92;100.00
22550;BME280;11441;57.164;-2.120;2023-04-06T12:04:38;100392.44;;;8.78;100.00
22550;BME280;11441;57.164;-2.120;2023-04-06T12:07:06;100384.78;;;9.15;100.00
22550;BME280;11441;57.164;-2.120;2023-04-06T12:09:32;100395.56;;;8.92;100.00
22550;BME280;11441;57.164;-2.120;2023-04-06T12:12:01;100385.97;;;8.86;100.00
22550;BME280;11441;57.164;-2.120;2023-04-06T12:14:28;100379.94;;;8.80;100.00
22550;BME280;11441;57.164;-2.120;2023-04-06T12:16:58;100392.91;;;8.96;100.00
22550;BME280;11441;57.164;-2.120;2023-04-06T12:19:24;100398.41;;;8.96;100.00
22550;BME280;11441;57.164;-2.120;2023-04-06T12:21:53;100407.09;;;8.98;100.00
22550;BME280;11441;57.164;-2.120;2023-04-06T12:24:21;100408.72;;;9.15;100.00
22550;BME280;11441;57.164;-2.120;2023-04-06T12:26:48;100394.28;;;9.18;100.00
22550;BME280;11441;57.164;-2.120;2023-04-06T12:29:19;100405.97;;;8.99;100.00
22550;BME280;11441;57.164;-2.120;2023-04-06T12:31:46;100407.56;;;9.16;100.00
22550;BME280;11441;57.164;-2.120;2023-04-06T12:34:13;100398.34;;;9.08;100.00
22550;BME280;11441;57.164;-2.120;2023-04-06T12:36:40;100398.00;;;9.10;100.00
22550;BME280;11441;57.164;-2.120;2023-04-06T12:39:07;100407.22;;;9.33;100.00
22550;BME280;11441;57.164;-2.120;2023-04-06T12:41:34;100407.22;;;9.33;100.00
22550;BME280;11441;57.164;-2.120;2023-04-06T12:44:01;100392.00;;;9.52;100.00
22550;BME280;11441;57.164;-2.120;2023-04-06T12:46:47;100414.25;;;9.31;100.00
22550;BME280;11441;57.164;-2.120;2023-04-06T12:49:14;100413.97;;;9.36;100.00
22550;BME280;11441;57.164;-2.120;2023-04-06T12:51:43;100410.00;;;9.49;100.00
22550;BME280;11441;57.164;-2.120;2023-04-06T12:54:10;100420.09;;;9.77;100.00
22550;BME280;11441;57.164;-2.120;2023-04-06T12:56:38;100421.19;;;9.56;100.00
22550;BME280;11441;57.164;-2.120;2023-04-06T12:59:05;100415.84;;;9.63;100.00
22550;BME280;11441;57.164;-2.120;2023-04-06T13:01:32;100409.66;;;9.67;100.00
22550;BME280;11441;57.164;-2.120;2023-04-06T13:03:59;100418.41;;;9.88;100.00